createdAt,value
2019-02-25T00:03:58.692Z,78.20
2019-02-25T00:09:04.798Z,78.60
2019-02-25T00:14:09.401Z,80.00
2019-02-25T00:19:13.778Z,78.20
2019-02-25T00:24:19.227Z,85.40
2019-02-25T00:29:24.327Z,92.10
2019-02-25T00:34:29.018Z,92.20
2019-02-25T00:39:34.049Z,91.50
2019-02-25T00:44:38.423Z,92.30
2019-02-25T00:49:43.389Z,94.00
2019-02-25T00:54:47.651Z,95.80
2019-02-25T00:59:52.165Z,95.00
2019-02-25T01:04:57.128Z,94.80
2019-02-25T01:10:02.604Z,90.20
2019-02-25T01:15:07.930Z,96.50
2019-02-25T01:20:12.505Z,96.50
2019-02-25T01:25:17.387Z,97.30
2019-02-25T01:30:22.755Z,99.90
2019-02-25T01:35:27.802Z,99.90
2019-02-25T01:40:33.682Z,99.90
2019-02-25T01:45:38.618Z,99.90
2019-02-25T01:50:43.816Z,98.90
2019-02-25T01:55:48.733Z,99.90
2019-02-25T02:00:55.797Z,99.90
2019-02-25T02:06:00.696Z,99.90
2019-02-25T02:11:05.730Z,99.90
2019-02-25T02:16:10.337Z,99.90
2019-02-25T02:21:14.985Z,99.90
2019-02-25T02:26:21.197Z,99.90
2019-02-25T02:31:26.171Z,99.90
2019-02-25T02:36:32.985Z,99.90
2019-02-25T02:42:13.275Z,99.90
2019-02-25T02:47:25.186Z,99.90
2019-02-25T02:52:29.900Z,99.90
2019-02-25T02:57:34.361Z,99.90
2019-02-25T03:02:38.658Z,99.90
2019-02-25T03:07:44.288Z,99.90
2019-02-25T03:12:49.020Z,99.90
2019-02-25T03:17:53.688Z,99.90
2019-02-25T03:22:58.847Z,99.90
2019-02-25T03:28:03.534Z,99.90
2019-02-25T03:33:08.286Z,99.90
2019-02-25T03:38:12.970Z,99.90
2019-02-25T03:43:18.204Z,99.90
2019-02-25T03:48:23.197Z,99.90
2019-02-25T03:53:28.069Z,99.90
2019-02-25T03:58:32.892Z,99.90
2019-02-25T04:03:37.287Z,99.90
2019-02-25T04:08:41.742Z,99.90
2019-02-25T04:13:47.122Z,99.90
2019-02-25T04:18:51.941Z,99.90
2019-02-25T04:23:56.273Z,99.90
2019-02-25T04:29:03.051Z,99.90
2019-02-25T04:34:08.297Z,99.90
2019-02-25T04:39:13.056Z,99.90
2019-02-25T04:44:17.805Z,99.90
2019-02-25T04:49:22.550Z,99.90
2019-02-25T04:54:27.190Z,99.90
2019-02-25T04:59:31.716Z,99.90
2019-02-25T05:04:37.177Z,99.90
2019-02-25T05:09:41.584Z,99.90
2019-02-25T05:14:47.098Z,99.90
2019-02-25T05:19:51.862Z,99.90
2019-02-25T05:24:59.099Z,99.90
2019-02-25T05:30:04.840Z,99.90
2019-02-25T05:35:10.508Z,99.90
2019-02-25T05:40:15.579Z,99.90
2019-02-25T05:45:20.132Z,99.90
2019-02-25T05:50:26.849Z,99.90
2019-02-25T05:55:32.437Z,99.90
2019-02-25T06:00:38.021Z,99.90
2019-02-25T06:05:43.631Z,99.90
2019-02-25T06:10:48.469Z,99.90
2019-02-25T06:15:53.318Z,99.90
2019-02-25T06:21:01.169Z,99.90
2019-02-25T06:26:06.291Z,99.90
2019-02-25T06:31:11.128Z,99.90
2019-02-25T06:36:17.294Z,99.90
2019-02-25T06:41:23.231Z,99.90
2019-02-25T06:46:28.705Z,99.90
2019-02-25T06:51:33.664Z,99.90
2019-02-25T06:56:38.508Z,99.90
2019-02-25T07:01:45.863Z,80.70
2019-02-25T07:07:03.922Z,68.80
2019-02-25T07:12:17.488Z,59.70
2019-02-25T07:17:46.076Z,58.20
2019-02-25T07:23:12.095Z,56.20
2019-02-25T07:28:27.519Z,56.00
2019-02-25T07:33:48.344Z,55.40
2019-02-25T07:39:17.590Z,53.50
2019-02-25T07:44:38.846Z,51.20
2019-02-25T07:50:02.600Z,49.10
2019-02-25T07:55:32.725Z,50.50
2019-02-25T08:00:54.084Z,52.10
2019-02-25T08:06:18.387Z,54.90
2019-02-25T08:11:44.537Z,54.10
2019-02-25T08:17:10.522Z,50.80
2019-02-25T08:22:30.987Z,48.30
2019-02-25T08:27:57.256Z,44.90
2019-02-25T08:33:20.952Z,41.90
2019-02-25T08:38:38.559Z,41.60
2019-02-25T08:44:01.452Z,41.20
2019-02-25T08:49:10.569Z,39.30
2019-02-25T08:54:16.220Z,39.40
2019-02-25T08:59:23.520Z,39.60
2019-02-25T09:04:27.874Z,42.90
2019-02-25T09:09:33.357Z,44.60
2019-02-25T09:14:37.882Z,44.70
2019-02-25T09:19:42.434Z,44.90
2019-02-25T09:24:47.182Z,43.20
2019-02-25T09:29:52.173Z,45.10
2019-02-25T09:34:57.220Z,44.70
2019-02-25T09:40:03.776Z,44.10
2019-02-25T09:45:10.157Z,43.40
2019-02-25T09:50:14.919Z,43.20
2019-02-25T09:55:19.769Z,43.50
2019-02-25T10:00:24.574Z,44.30
2019-02-25T10:05:29.538Z,45.30
2019-02-25T10:10:33.989Z,46.00
2019-02-25T10:15:38.707Z,48.10
2019-02-25T10:20:43.295Z,49.90
2019-02-25T10:25:50.553Z,52.00
2019-02-25T10:30:54.916Z,52.30
2019-02-25T10:36:01.019Z,53.90
2019-02-25T10:41:05.691Z,56.30
2019-02-25T10:46:11.706Z,55.40
2019-02-25T10:51:16.688Z,55.70
2019-02-25T10:56:31.300Z,55.60
2019-02-25T11:01:37.587Z,57.10
2019-02-25T11:06:43.699Z,57.30
2019-02-25T11:11:48.997Z,58.20
2019-02-25T11:16:54.592Z,57.80
2019-02-25T11:22:00.459Z,57.10
2019-02-25T11:27:07.201Z,57.40
2019-02-25T11:32:11.953Z,57.70
2019-02-25T11:37:18.548Z,58.10
2019-02-25T11:42:23.039Z,57.30
2019-02-25T11:47:28.789Z,57.70
2019-02-25T11:52:33.397Z,58.20
2019-02-25T11:57:39.940Z,58.00
2019-02-25T12:02:45.571Z,58.30
2019-02-25T12:07:50.386Z,58.90
2019-02-25T12:12:57.676Z,58.40
2019-02-25T12:18:02.462Z,57.70
2019-02-25T12:23:07.567Z,57.90
2019-02-25T12:28:11.998Z,57.20
2019-02-25T12:33:18.000Z,57.70
2019-02-25T12:38:26.362Z,57.20
2019-02-25T12:43:30.807Z,56.90
2019-02-25T12:48:38.472Z,57.30
2019-02-25T12:53:44.136Z,56.90
2019-02-25T12:58:49.916Z,57.00
2019-02-25T13:03:55.597Z,56.30
2019-02-25T13:09:00.593Z,56.70
2019-02-25T13:14:05.172Z,56.80
2019-02-25T13:19:10.681Z,55.90
2019-02-25T13:24:16.109Z,59.20
2019-02-25T13:29:21.223Z,59.20
2019-02-25T13:34:25.677Z,59.80
2019-02-25T13:39:30.840Z,59.10
2019-02-25T13:44:35.949Z,60.00
2019-02-25T13:49:41.180Z,59.30
2019-02-25T13:54:49.917Z,58.70
2019-02-25T13:59:54.445Z,58.70
2019-02-25T14:04:59.744Z,59.20
2019-02-25T14:10:08.101Z,59.50
2019-02-25T14:15:13.862Z,59.00
2019-02-25T14:20:18.928Z,59.20
2019-02-25T14:25:25.733Z,59.70
2019-02-25T14:30:33.754Z,59.60
2019-02-25T14:35:39.147Z,60.30
2019-02-25T14:40:44.911Z,59.50
2019-02-25T14:45:53.957Z,59.50
2019-02-25T14:50:56.871Z,60.00
2019-02-25T14:56:03.838Z,60.30
2019-02-25T15:01:09.033Z,60.00
2019-02-25T15:06:14.308Z,60.50
2019-02-25T15:11:19.490Z,60.60
2019-02-25T15:16:24.386Z,60.70
2019-02-25T15:21:29.839Z,60.90
2019-02-25T15:26:42.581Z,61.20
2019-02-25T15:31:44.436Z,62.00
2019-02-25T15:37:00.708Z,62.30
2019-02-25T15:42:05.878Z,62.70
2019-02-25T15:47:12.859Z,60.90
2019-02-25T15:52:20.961Z,59.40
2019-02-25T15:57:26.410Z,60.50
2019-02-25T16:02:32.578Z,60.70
2019-02-25T16:07:38.076Z,61.30
2019-02-25T16:12:43.524Z,63.00
2019-02-25T16:17:51.676Z,65.10
2019-02-25T16:23:00.182Z,67.00
2019-02-25T16:28:05.845Z,67.70
2019-02-25T16:33:12.637Z,68.60
2019-02-25T16:38:21.127Z,69.20
2019-02-25T16:43:25.235Z,70.50
2019-02-25T16:48:30.803Z,71.60
2019-02-25T16:53:38.675Z,72.70
2019-02-25T16:58:45.354Z,74.90
2019-02-25T17:03:51.046Z,76.10
2019-02-25T17:08:57.808Z,76.70
2019-02-25T17:14:05.704Z,77.90
2019-02-25T17:19:10.749Z,78.70
2019-02-25T17:24:16.231Z,79.60
2019-02-25T17:29:23.121Z,80.00
2019-02-25T17:34:28.189Z,80.00
2019-02-25T17:39:35.048Z,81.30
2019-02-25T17:44:39.974Z,82.90
2019-02-25T17:49:46.334Z,83.50
2019-02-25T17:54:52.823Z,85.40
2019-02-25T17:59:58.107Z,85.60
2019-02-25T18:05:09.425Z,85.70
2019-02-25T18:10:17.683Z,87.80
2019-02-25T18:15:24.557Z,90.50
2019-02-25T18:20:31.003Z,92.50
2019-02-25T18:25:37.646Z,94.80
2019-02-25T18:30:47.316Z,96.80
2019-02-25T18:35:53.104Z,97.40
2019-02-25T18:40:59.910Z,98.50
2019-02-25T18:46:05.501Z,99.30
2019-02-25T18:51:12.218Z,99.90
2019-02-25T18:56:18.940Z,99.90
2019-02-25T19:01:25.297Z,99.90
2019-02-25T19:06:30.688Z,99.90
2019-02-25T19:11:35.920Z,99.90
2019-02-25T19:16:42.491Z,99.90
2019-02-25T19:21:49.831Z,99.90
2019-02-25T19:26:55.408Z,99.90
2019-02-25T19:32:01.134Z,99.90
2019-02-25T19:37:07.001Z,99.90
2019-02-25T19:42:15.570Z,99.90
2019-02-25T19:47:22.412Z,99.90
2019-02-25T19:52:30.675Z,99.90
2019-02-25T19:57:35.750Z,99.90
2019-02-25T20:02:42.067Z,99.90
2019-02-25T20:07:49.707Z,99.90
2019-02-25T20:12:55.745Z,99.90
2019-02-25T20:18:02.074Z,99.90
2019-02-25T20:23:08.563Z,99.90
2019-02-25T20:28:17.605Z,99.90
2019-02-25T20:33:23.615Z,99.90
2019-02-25T20:38:29.634Z,99.90
2019-02-25T20:43:34.476Z,99.90
2019-02-25T20:48:39.750Z,99.90
2019-02-25T20:53:46.139Z,99.90
2019-02-25T20:58:51.302Z,99.90
2019-02-25T21:03:56.852Z,99.90
2019-02-25T21:09:02.537Z,99.90
2019-02-25T21:14:08.145Z,99.90
2019-02-25T21:19:17.575Z,99.90
2019-02-25T21:24:21.580Z,99.90
2019-02-25T21:29:27.590Z,99.90
2019-02-25T21:34:34.655Z,99.90
2019-02-25T21:39:40.768Z,99.90
2019-02-25T21:44:50.139Z,99.90
2019-02-25T21:49:55.025Z,99.90
2019-02-25T21:55:02.513Z,99.90
2019-02-25T22:00:09.488Z,99.90
2019-02-25T22:05:16.708Z,99.90
2019-02-25T22:10:21.132Z,99.90
2019-02-25T22:15:25.670Z,99.90
2019-02-25T22:20:30.649Z,99.90
2019-02-25T22:25:35.210Z,99.90
2019-02-25T22:30:39.642Z,99.90
2019-02-25T22:35:46.936Z,99.90
2019-02-25T22:40:51.480Z,99.90
2019-02-25T22:46:00.256Z,99.90
2019-02-25T22:51:06.982Z,99.90
2019-02-25T22:56:13.542Z,99.90
2019-02-25T23:01:18.404Z,99.90
2019-02-25T23:06:25.255Z,99.90
2019-02-25T23:11:29.655Z,99.90
2019-02-25T23:16:34.259Z,99.90
2019-02-25T23:21:39.346Z,99.90
2019-02-25T23:26:44.567Z,99.90
2019-02-25T23:31:52.252Z,99.90
2019-02-25T23:36:57.466Z,99.90
2019-02-25T23:42:06.578Z,99.90
2019-02-25T23:47:10.931Z,99.90
2019-02-25T23:52:16.415Z,99.90
2019-02-25T23:57:21.717Z,99.90
